RJBM(METAR)
08/24 02:00
METAR RJBM 231700Z 17003KT 9999 FEW008 BKN150 23/22 Q1009 RMK 1ST008
7AC150 A2981=
戻る
トップページへ戻る
IMOC Co,.Ltd.